Time;durP1;ratioP1;P1;durP2;ratioP2;P2;SDS_P1;SDS_P2;PMS_P1;PMS_P2;Temp;Humidity;BMP_temperature;BMP_pressure;BME280_temperature;BME280_humidity;BME280_pressure;Samples;Min_cycle;Max_cycle;Signal;HPM_P1;HPM_P2
2023/04/28 05:51:53;;;;;;;4.97;3.47;;;;;;;;;;10498606;28;20167;-84
2023/04/28 05:56:54;;;;;;;5.95;4.53;;;;;;;;;;10495125;28;20020;-84
2023/04/28 06:01:55;;;;;;;5.22;3.33;;;;;;;;;;10522046;22;20041;-82
2023/04/28 06:06:56;;;;;;;;;;;;;;;;;;10462602;28;20021;-83
2023/04/28 06:11:57;;;;;;;5.10;4.40;;;;;;;;;;10475109;28;19916;-83
2023/04/28 06:16:58;;;;;;;;;;;;;;;;;;10506586;28;20043;-83
2023/04/28 06:21:59;;;;;;;5.88;4.55;;;;;;;;;;10502108;28;19959;-83
2023/04/28 06:27:01;;;;;;;5.15;4.57;;;;;;;;;;10503059;28;20100;-82
2023/04/28 06:32:02;;;;;;;7.75;6.43;;;;;;;;;;10504516;28;20052;-83
2023/04/28 06:37:04;;;;;;;5.13;3.95;;;;;;;;;;10510437;28;20024;-83
2023/04/28 06:42:05;;;;;;;5.25;3.90;;;;;;;;;;10523026;28;20036;-83
2023/04/28 06:47:06;;;;;;;5.50;3.50;;;;;;;;;;10510703;28;20086;-82
2023/04/28 06:52:07;;;;;;;5.25;4.25;;;;;;;;;;10502355;28;20479;-82
2023/04/28 06:57:08;;;;;;;7.22;5.35;;;;;;;;;;10500262;28;20056;-82
2023/04/28 07:02:09;;;;;;;5.00;3.25;;;;;;;;;;10478021;28;20029;-81
2023/04/28 07:07:18;;;;;;;5.10;3.35;;;;;;;;;;10474336;28;20451;-83
2023/04/28 07:12:21;;;;;;;4.80;3.80;;;;;;;;;;10475855;28;20025;-82
2023/04/28 07:17:22;;;;;;;6.25;4.35;;;;;;;;;;10473038;28;20029;-83
2023/04/28 07:22:23;;;;;;;7.18;4.53;;;;;;;;;;10474415;28;20082;-83
2023/04/28 07:27:24;;;;;;;6.43;4.32;;;;;;;;;;10472985;28;20077;-82
2023/04/28 07:32:25;;;;;;;6.05;3.75;;;;;;;;;;10477792;28;20147;-83
2023/04/28 07:37:26;;;;;;;5.53;3.55;;;;;;;;;;10493162;28;20025;-84
2023/04/28 07:42:27;;;;;;;7.53;4.18;;;;;;;;;;10499495;28;20033;-83
2023/04/28 07:47:28;;;;;;;5.88;3.67;;;;;;;;;;10493683;28;20028;-84
2023/04/28 07:52:29;;;;;;;8.75;4.88;;;;;;;;;;10504778;28;20028;-84
2023/04/28 07:57:30;;;;;;;6.43;4.90;;;;;;;;;;10492996;28;20017;-84
2023/04/28 08:02:33;;;;;;;7.47;5.93;;;;;;;;;;10482604;28;20071;-85
2023/04/28 08:07:34;;;;;;;16.33;13.15;;;;;;;;;;10490644;28;20025;-83
2023/04/28 08:12:35;;;;;;;10.85;8.13;;;;;;;;;;10475335;28;20029;-85
2023/04/28 08:17:36;;;;;;;10.43;7.00;;;;;;;;;;10475679;28;20024;-83
2023/04/28 08:22:37;;;;;;;10.20;6.72;;;;;;;;;;10474913;28;20032;-83
2023/04/28 08:27:38;;;;;;;8.13;7.00;;;;;;;;;;10474607;28;20370;-83
2023/04/28 08:32:40;;;;;;;9.18;6.75;;;;;;;;;;10472605;28;20490;-82
2023/04/28 08:37:41;;;;;;;8.65;5.93;;;;;;;;;;10470709;28;20532;-83
2023/04/28 08:42:45;;;;;;;7.00;4.25;;;;;;;;;;10468372;28;20443;-83
2023/04/28 08:47:50;;;;;;;10.93;4.40;;;;;;;;;;10471039;28;20056;-83
2023/04/28 08:52:52;;;;;;;8.57;3.85;;;;;;;;;;10467845;28;20040;-83
2023/04/28 08:57:55;;;;;;;8.27;3.50;;;;;;;;;;10469494;28;20036;-84
2023/04/28 09:02:56;;;;;;;11.60;4.82;;;;;;;;;;10468923;28;20036;-87
2023/04/28 09:07:57;;;;;;;9.85;4.10;;;;;;;;;;10471809;28;20036;-85
2023/04/28 09:12:58;;;;;;;6.15;4.28;;;;;;;;;;10472836;28;20044;-87
2023/04/28 09:17:59;;;;;;;6.13;3.55;;;;;;;;;;10475507;28;20105;-85
2023/04/28 09:23:19;;;;;;;7.43;4.07;;;;;;;;;;10475334;28;20516;-84
2023/04/28 09:28:20;;;;;;;7.25;3.47;;;;;;;;;;10471921;28;20025;-83
2023/04/28 09:33:22;;;;;;;11.48;3.63;;;;;;;;;;10472456;28;20021;-84
2023/04/28 09:38:24;;;;;;;6.65;3.58;;;;;;;;;;10470299;28;20025;-84
2023/04/28 09:43:28;;;;;;;9.73;3.38;;;;;;;;;;10474284;28;20033;-83
2023/04/28 09:48:33;;;;;;;6.72;3.72;;;;;;;;;;10473417;28;20119;-82
2023/04/28 09:53:35;;;;;;;6.50;4.05;;;;;;;;;;10469894;28;20025;-82
2023/04/28 09:58:39;;;;;;;7.28;3.85;;;;;;;;;;10472386;28;20032;-82
2023/04/28 10:03:41;;;;;;;7.22;4.03;;;;;;;;;;10469707;28;20128;-83
2023/04/28 10:08:44;;;;;;;6.82;3.95;;;;;;;;;;10469074;28;20051;-84
2023/04/28 10:13:45;;;;;;;8.02;3.88;;;;;;;;;;10474631;28;20059;-83
2023/04/28 10:18:47;;;;;;;6.88;3.72;;;;;;;;;;10476283;28;20028;-84
2023/04/28 10:23:59;;;;;;;7.30;3.92;;;;;;;;;;10488452;28;20037;-80
2023/04/28 10:29:00;;;;;;;5.28;3.95;;;;;;;;;;10472567;28;20025;-82
2023/04/28 10:34:21;;;;;;;6.03;4.95;;;;;;;;;;10467124;28;20055;-83
2023/04/28 10:39:23;;;;;;;5.68;3.70;;;;;;;;;;10476372;28;20529;-83
2023/04/28 10:44:30;;;;;;;4.32;3.67;;;;;;;;;;10473964;28;20124;-82
2023/04/28 10:49:50;;;;;;;4.53;3.67;;;;;;;;;;10474237;28;20120;-83
2023/04/28 10:55:10;;;;;;;4.43;3.40;;;;;;;;;;10473909;28;20027;-82
2023/04/28 11:00:27;;;;;;;6.23;3.60;;;;;;;;;;10473617;28;20025;-83
2023/04/28 11:05:30;;;;;;;6.40;3.92;;;;;;;;;;10474209;28;20036;-83
2023/04/28 11:10:52;;;;;;;5.65;4.05;;;;;;;;;;10472227;28;20025;-82
2023/04/28 11:16:04;;;;;;;4.90;3.70;;;;;;;;;;10472735;28;20486;-81
2023/04/28 11:21:05;;;;;;;4.80;3.80;;;;;;;;;;10473222;28;20040;-83
2023/04/28 11:26:06;;;;;;;6.88;4.05;;;;;;;;;;10472260;28;20402;-82
2023/04/28 11:31:22;;;;;;;6.88;4.80;;;;;;;;;;10471414;28;20029;-83
2023/04/28 11:36:37;;;;;;;5.97;3.55;;;;;;;;;;10475298;28;20025;-83
2023/04/28 11:41:42;;;;;;;5.18;4.13;;;;;;;;;;10474217;28;20162;-81
2023/04/28 11:46:54;;;;;;;6.32;5.15;;;;;;;;;;10472959;28;20032;-82
2023/04/28 11:52:04;;;;;;;8.57;4.95;;;;;;;;;;10474920;28;20045;-84
2023/04/28 11:57:10;;;;;;;6.00;4.90;;;;;;;;;;10475588;28;20148;-83
2023/04/28 12:02:15;;;;;;;6.05;4.85;;;;;;;;;;10510711;22;20052;-83
2023/04/28 12:07:18;;;;;;;7.38;5.22;;;;;;;;;;10522032;28;20024;-83
2023/04/28 12:12:29;;;;;;;6.68;4.70;;;;;;;;;;10521476;28;20020;-83
2023/04/28 12:17:34;;;;;;;7.20;4.68;;;;;;;;;;10520795;28;20028;-84
2023/04/28 12:22:49;;;;;;;7.55;6.07;;;;;;;;;;10520425;28;20044;-83
2023/04/28 12:28:01;;;;;;;6.82;5.18;;;;;;;;;;10519793;28;20031;-82
2023/04/28 12:33:03;;;;;;;7.28;5.13;;;;;;;;;;10526504;28;20082;-83
2023/04/28 12:38:04;;;;;;;8.85;6.40;;;;;;;;;;10525231;28;20023;-83
2023/04/28 12:43:05;;;;;;;8.43;7.28;;;;;;;;;;10525593;28;20024;-82
2023/04/28 12:48:06;;;;;;;10.60;6.82;;;;;;;;;;10522823;28;20020;-84
2023/04/28 12:53:07;;;;;;;8.45;7.65;;;;;;;;;;10518393;28;20028;-82
2023/04/28 12:58:09;;;;;;;10.23;9.15;;;;;;;;;;10516233;28;20021;-83
2023/04/28 13:03:10;;;;;;;10.30;8.38;;;;;;;;;;10518374;28;20086;-83
2023/04/28 13:08:12;;;;;;;9.85;8.85;;;;;;;;;;10535449;28;20037;-82
2023/04/28 13:13:13;;;;;;;9.70;8.10;;;;;;;;;;10544898;28;20025;-83
2023/04/28 13:18:15;;;;;;;10.65;9.57;;;;;;;;;;10526104;28;20021;-82
2023/04/28 13:23:16;;;;;;;12.82;8.18;;;;;;;;;;10523435;28;20024;-83
2023/04/28 13:28:17;;;;;;;9.43;8.55;;;;;;;;;;10520589;28;20029;-83
2023/04/28 13:33:18;;;;;;;11.18;7.55;;;;;;;;;;10516952;28;20132;-82
2023/04/28 13:38:20;;;;;;;9.32;7.00;;;;;;;;;;10515812;28;20040;-82
2023/04/28 13:43:22;;;;;;;8.02;7.22;;;;;;;;;;10517581;28;20033;-81
2023/04/28 13:48:24;;;;;;;8.85;7.68;;;;;;;;;;10516340;28;20052;-81
2023/04/28 13:53:25;;;;;;;8.75;6.82;;;;;;;;;;10515604;28;20016;-82
2023/04/28 13:58:26;;;;;;;6.95;5.65;;;;;;;;;;10516114;28;20048;-82
2023/04/28 14:03:27;;;;;;;5.93;5.32;;;;;;;;;;10514119;28;20060;-82
2023/04/28 14:08:28;;;;;;;6.25;5.65;;;;;;;;;;10514221;28;20051;-82
2023/04/28 14:13:29;;;;;;;6.13;5.45;;;;;;;;;;10520561;28;20474;-83
2023/04/28 14:18:32;;;;;;;6.55;4.80;;;;;;;;;;10519866;28;20024;-82
2023/04/28 14:23:34;;;;;;;5.57;5.03;;;;;;;;;;10517557;28;20024;-81
2023/04/28 14:28:36;;;;;;;5.28;4.55;;;;;;;;;;10525150;28;20004;-83
2023/04/28 14:33:37;;;;;;;7.60;4.43;;;;;;;;;;10523140;28;20028;-84
2023/04/28 14:38:38;;;;;;;6.13;4.60;;;;;;;;;;10521973;28;20398;-82
2023/04/28 14:43:39;;;;;;;5.13;4.25;;;;;;;;;;10524251;28;20028;-83
2023/04/28 14:48:40;;;;;;;3.83;3.25;;;;;;;;;;10523307;28;20088;-83
2023/04/28 14:53:41;;;;;;;5.05;4.15;;;;;;;;;;10523981;28;20024;-84
2023/04/28 14:58:43;;;;;;;5.60;5.10;;;;;;;;;;10521363;28;20028;-85
2023/04/28 15:03:44;;;;;;;5.38;4.15;;;;;;;;;;10521428;28;20103;-85
2023/04/28 15:08:45;;;;;;;6.35;4.38;;;;;;;;;;10519281;28;20032;-84
2023/04/28 15:13:46;;;;;;;4.07;3.78;;;;;;;;;;10516977;28;20135;-83
2023/04/28 15:18:48;;;;;;;6.47;3.90;;;;;;;;;;10516357;28;20032;-84
2023/04/28 15:23:49;;;;;;;7.18;3.58;;;;;;;;;;10516390;28;20099;-83
2023/04/28 15:28:50;;;;;;;4.85;3.63;;;;;;;;;;10515425;28;20028;-82
2023/04/28 15:33:51;;;;;;;3.97;3.50;;;;;;;;;;10516160;28;20071;-83
2023/04/28 15:38:52;;;;;;;5.15;4.40;;;;;;;;;;10512206;28;20348;-83
2023/04/28 15:43:54;;;;;;;3.72;3.30;;;;;;;;;;10525547;28;20025;-83
2023/04/28 15:48:55;;;;;;;6.68;6.07;;;;;;;;;;10511963;28;20032;-83
2023/04/28 15:53:57;;;;;;;4.68;3.60;;;;;;;;;;10511723;28;20553;-84
2023/04/28 15:58:58;;;;;;;4.03;3.42;;;;;;;;;;10510166;28;20033;-83
2023/04/28 16:04:00;;;;;;;3.95;3.15;;;;;;;;;;10507353;28;20079;-84
2023/04/28 16:09:01;;;;;;;4.53;4.13;;;;;;;;;;10510405;28;20024;-84
2023/04/28 16:14:02;;;;;;;3.58;2.80;;;;;;;;;;10508086;28;20040;-84
2023/04/28 16:19:03;;;;;;;3.00;2.70;;;;;;;;;;10509196;28;20029;-82
2023/04/28 16:24:04;;;;;;;5.05;3.88;;;;;;;;;;10508694;28;20028;-83
2023/04/28 16:29:05;;;;;;;3.35;2.88;;;;;;;;;;10510201;28;20036;-84
2023/04/28 16:34:06;;;;;;;4.20;3.58;;;;;;;;;;10515234;28;20027;-83
2023/04/28 16:39:08;;;;;;;5.00;3.83;;;;;;;;;;10515631;28;20116;-83
2023/04/28 16:44:10;;;;;;;3.75;3.15;;;;;;;;;;10513852;28;20029;-83
2023/04/28 16:49:11;;;;;;;3.60;3.30;;;;;;;;;;10512409;28;20572;-83
2023/04/28 16:54:13;;;;;;;4.70;3.80;;;;;;;;;;10513372;28;20486;-83
2023/04/28 16:59:14;;;;;;;10.20;8.95;;;;;;;;;;10538843;28;20043;-82
2023/04/28 17:04:18;;;;;;;4.63;4.03;;;;;;;;;;10537998;28;20082;-83
2023/04/28 17:09:20;;;;;;;3.72;3.28;;;;;;;;;;10514009;28;20031;-83
2023/04/28 17:14:21;;;;;;;4.72;3.83;;;;;;;;;;10514375;28;20033;-84
2023/04/28 17:19:22;;;;;;;5.43;4.55;;;;;;;;;;10514199;28;20025;-83
2023/04/28 17:24:23;;;;;;;4.43;4.00;;;;;;;;;;10513226;28;20032;-83
2023/04/28 17:29:24;;;;;;;3.55;3.22;;;;;;;;;;10513447;28;20048;-83
2023/04/28 17:34:25;;;;;;;3.80;3.40;;;;;;;;;;10515555;28;20024;-83
2023/04/28 17:39:27;;;;;;;3.88;3.05;;;;;;;;;;10538438;28;20037;-83
2023/04/28 17:44:28;;;;;;;2.90;2.60;;;;;;;;;;10515359;28;20422;-83
2023/04/28 17:49:29;;;;;;;2.85;2.50;;;;;;;;;;10517280;28;20088;-83
2023/04/28 17:54:31;;;;;;;3.22;2.60;;;;;;;;;;10514237;28;20027;-83
2023/04/28 17:59:32;;;;;;;2.90;2.10;;;;;;;;;;10512556;28;20470;-83
2023/04/28 18:04:33;;;;;;;2.75;2.42;;;;;;;;;;10588855;22;20056;-80
2023/04/28 18:09:34;;;;;;;3.22;2.92;;;;;;;;;;10547920;28;20148;-80
2023/04/28 18:14:35;;;;;;;3.30;2.95;;;;;;;;;;10544230;28;20028;-80
2023/04/28 18:19:36;;;;;;;2.25;2.03;;;;;;;;;;10545688;28;20428;-79
2023/04/28 18:24:37;;;;;;;3.00;2.60;;;;;;;;;;10546473;28;20058;-80
2023/04/28 18:29:38;;;;;;;3.10;2.67;;;;;;;;;;10545883;28;20024;-80
2023/04/28 18:34:39;;;;;;;2.90;2.22;;;;;;;;;;10543461;28;20016;-79
2023/04/28 18:39:40;;;;;;;2.25;1.90;;;;;;;;;;10544264;28;20020;-80
2023/04/28 18:44:41;;;;;;;3.88;3.05;;;;;;;;;;10546246;28;20024;-79
2023/04/28 18:49:42;;;;;;;4.47;2.67;;;;;;;;;;10548570;28;20032;-80
2023/04/28 18:54:44;;;;;;;3.38;3.08;;;;;;;;;;10548074;28;20043;-80
2023/04/28 18:59:45;;;;;;;4.65;4.20;;;;;;;;;;10556032;28;20442;-79
2023/04/28 19:04:46;;;;;;;3.67;3.33;;;;;;;;;;10557684;28;20047;-79
2023/04/28 19:09:47;;;;;;;6.03;5.43;;;;;;;;;;10554904;28;20092;-81
2023/04/28 19:14:48;;;;;;;7.03;6.43;;;;;;;;;;10553785;28;20062;-80
